Shelby — WCV6157 — position and weather

sailwx.info

Track history (hours):
 
Tides and Currents Weather Stations Pressure Air Temp Water Temp Dewpoint Dewpoint Depression Visibility Wind Speed Wind Dir Waves Ship Positions

Shelby

Owner: WEEKS MARINE, INC., CRANFORD, NJ. More information available from US FCC via Universal Licensing System and Coast Guard Vessel Documentation Center.

Last reported at 2015-Jul-06 21:33 UTC. Time now 2015-Jul-06 22:13 UTC.
Position N 40°30' W 074°08'.

Length 22 m; draft 3.1 m.

Type: Tug. MMSI: 366902344.

Date/timePositionNaut miles runAvg speedWind from/ knotsBaromVisibWave heightAir tempDewpointWater temp
2015-Jul-06 21:33N 40°30' W 074°08'6 6.3
2015-Jul-06 20:33N 40°32' W 074°00'6 6.0
2015-Jul-06 19:33N 40°33' W 073°53'0 0.1
2015-Jul-06 18:30N 40°33' W 073°53'1 1.3
2015-Jul-06 17:33N 40°34' W 073°54'0 0.0
2015-Jul-06 16:33N 40°34' W 073°54'0 0.0
2015-Jul-06 15:33N 40°34' W 073°54'0 0.0
2015-Jul-06 14:33N 40°34' W 073°54'4 3.4
2015-Jul-06 13:28N 40°34' W 073°59'3 0.5
2015-Jul-06 06:33N 40°32' W 074°02'6 5.6
2015-Jul-06 05:33N 40°32' W 073°55'3 2.4
2015-Jul-06 04:25N 40°33' W 073°52'3 2.9
2015-Jul-06 03:15N 40°33' W 073°57'2 3.0
2015-Jul-06 02:33N 40°34' W 073°54'0 0.0
2015-Jul-06 01:33N 40°34' W 073°54'3 2.9
2015-Jul-06 00:31N 40°34' W 073°58'5 4.8
2015-Jul-05 23:26N 40°32' W 074°04'1 0.1
2015-Jul-05 18:15N 40°31' W 074°04'4 6.0
2015-Jul-05 17:32N 40°32' W 073°59'2 2.1
2015-Jul-05 16:32N 40°34' W 073°59'3 1.0
2015-Jul-05 13:28N 40°32' W 074°03'7 7.4
2015-Jul-05 12:33N 40°32' W 073°54'0 0.4
2015-Jul-05 11:31N 40°32' W 073°54'2 2.4
2015-Jul-05 10:33N 40°34' W 073°56'2 1.6
2015-Jul-05 09:33N 40°34' W 073°54'0 0.2
2015-Jul-05 08:33N 40°34' W 073°54'5 4.8
2015-Jul-05 07:30N 40°34' W 074°01'4 1.2
2015-Jul-05 04:19N 40°31' W 074°04'6 6.4
2015-Jul-05 03:25N 40°32' W 073°57'1 0.5
2015-Jul-05 01:12N 40°32' W 073°58'2 3.8
2015-Jul-05 00:33N 40°32' W 074°01'2 0.3
2015-Jul-04 17:33N 40°34' W 074°01'5 4.8
2015-Jul-04 16:33N 40°34' W 073°54'2 2.1
2015-Jul-04 15:33N 40°32' W 073°53'0 0.1
2015-Jul-04 14:20N 40°32' W 073°53'3 3.3
2015-Jul-04 13:25N 40°33' W 073°57'2 2.6
2015-Jul-04 12:33N 40°34' W 073°54'2 1.7
2015-Jul-04 11:32N 40°32' W 073°53'2 2.0
2015-Jul-04 10:33N 40°31' W 073°55'3 2.8
2015-Jul-04 09:33N 40°34' W 073°54'1 1.4
2015-Jul-04 08:33N 40°34' W 073°56'3 2.6
2015-Jul-04 07:33N 40°33' W 073°53'3 2.6
2015-Jul-04 06:33N 40°32' W 073°55'3 2.7
2015-Jul-04 05:33N 40°34' W 073°54'0 0.0
2015-Jul-04 04:33N 40°34' W 073°54'1 1.3
2015-Jul-04 03:33N 40°34' W 073°56'5 5.0
2015-Jul-04 02:33N 40°33' W 074°02'6 5.7
2015-Jul-04 01:33N 40°30' W 074°08'2 0.2
2015-Jul-03 18:30N 40°30' W 074°10'6 5.8
2015-Jul-03 17:27N 40°32' W 074°03'6 6.3
2015-Jul-03 16:33N 40°31' W 073°56'1 1.2
2015-Jul-03 15:24N 40°32' W 073°54'5 5.9
2015-Jul-03 14:33N 40°32' W 074°01'13 4.2
2015-Jul-03 11:32N 40°30' W 074°17'1 0.2
2015-Jul-03 08:21N 40°30' W 074°16'3 3.3
2015-Jul-03 07:26N 40°30' W 074°20'6 3.2
2015-Jul-03 05:32N 40°30' W 074°12'6 5.4
2015-Jul-03 04:28N 40°31' W 074°04'5 5.6
2015-Jul-03 03:33N 40°34' W 073°59'3 3.5
2015-Jul-03 02:33N 40°34' W 073°54'0 0.1
2015-Jul-03 01:33N 40°34' W 073°54'2 2.1
2015-Jul-03 00:34N 40°33' W 073°52'2 1.9
2015-Jul-02 23:33N 40°32' W 073°54'2 2.0
2015-Jul-02 22:33N 40°34' W 073°56'2 1.6
2015-Jul-02 21:33N 40°34' W 073°54'0 0.0
2015-Jul-02 20:33N 40°34' W 073°54'3 2.6
2015-Jul-02 19:33N 40°32' W 073°57'3 2.2
2015-Jul-02 18:23N 40°32' W 073°53'3 3.0
2015-Jul-02 17:33N 40°34' W 073°56'2 0.8
2015-Jul-02 15:33N 40°34' W 073°54'2 1.4
2015-Jul-02 14:21N 40°32' W 073°53'0 0.2
2015-Jul-02 13:25N 40°33' W 073°53'3 3.1
2015-Jul-02 12:33N 40°33' W 073°57'2 2.3
2015-Jul-02 11:32N 40°34' W 073°54'0 0.0
2015-Jul-02 10:33N 40°34' W 073°54'0 0.0
2015-Jul-02 09:33N 40°34' W 073°54'0 0.4
2015-Jul-02 08:33N 40°34' W 073°55'17 8.0
2015-Jul-02 06:30N 40°30' W 074°15'12 6.1
2015-Jul-02 04:33N 40°34' W 074°01'5 1.7
2015-Jul-02 01:27N 40°34' W 073°54'2 2.7
2015-Jul-02 00:32N 40°33' W 073°57'3 3.0
2015-Jul-01 23:32N 40°33' W 073°53'5 4.1
2015-Jul-01 22:11N 40°32' W 073°60'12 3.4
2015-Jul-01 18:32N 40°30' W 074°16'5 3.4
2015-Jul-01 17:12N 40°30' W 074°10'4 6.6
2015-Jul-01 16:32N 40°31' W 074°04'6 5.8
2015-Jul-01 15:34N 40°32' W 073°57'4 3.7
2015-Jul-01 14:33N 40°33' W 073°52'3 3.5
2015-Jul-01 13:33N 40°32' W 073°57'3 2.6
2015-Jul-01 12:33N 40°34' W 073°54'0 0.0
2015-Jul-01 08:27N 40°34' W 073°54'3 2.8
2015-Jul-01 07:32N 40°32' W 073°56'2 2.5
2015-Jul-01 06:33N 40°33' W 073°53'2 2.5
2015-Jul-01 05:33N 40°34' W 073°56'2 1.5
2015-Jul-01 04:30N 40°34' W 073°54'0 0.0
2015-Jul-01 03:20N 40°34' W 073°54'0 0.0
2015-Jul-01 02:29N 40°34' W 073°54'7 7.7
2015-Jul-01 01:34N 40°37' W 074°03'4 3.7
2015-Jul-01 00:33N 40°39' W 074°07'0 0.0
2015-Jun-30 23:33N 40°39' W 074°07'0 0.0
2015-Jun-30 22:33N 40°39' W 074°07'2 2.3
2015-Jun-30 21:33N 40°41' W 074°05'0 0.0
2015-Jun-30 20:33N 40°41' W 074°05'0 0.0
2015-Jun-30 19:33N 40°41' W 074°05'410.7
2015-Jun-30 19:12N 40°44' W 074°01'4 5.8
2015-Jun-30 18:33N 40°41' W 074°05'0 0.0
2015-Jun-30 17:33N 40°41' W 074°05'0 0.0
2015-Jun-30 16:33N 40°41' W 074°05'0 0.0
2015-Jun-30 15:33N 40°41' W 074°05'0 0.0
2015-Jun-30 14:33N 40°41' W 074°05'0 0.0
2015-Jun-30 13:33N 40°41' W 074°05'0 0.0
2015-Jun-30 12:33N 40°41' W 074°05'0 0.0
2015-Jun-30 11:33N 40°41' W 074°05'0 0.0
2015-Jun-30 10:33N 40°41' W 074°05'0 0.0
2015-Jun-30 09:33N 40°41' W 074°05'0 0.0
2015-Jun-30 08:33N 40°41' W 074°05'0 0.0
2015-Jun-30 07:33N 40°41' W 074°05'0 0.0
2015-Jun-30 06:33N 40°41' W 074°05'0 0.0
2015-Jun-30 05:33N 40°41' W 074°05'0 0.0
2015-Jun-30 04:33N 40°41' W 074°05'0 0.0
2015-Jun-30 03:33N 40°41' W 074°05'0 0.0
2015-Jun-30 02:33N 40°41' W 074°05'0 0.0
2015-Jun-30 01:33N 40°41' W 074°05'0 0.0
2015-Jun-30 00:33N 40°41' W 074°05'0 0.0
2015-Jun-29 23:33N 40°41' W 074°05'0 0.0
2015-Jun-29 22:33N 40°41' W 074°05'0 0.0
2015-Jun-29 21:33N 40°41' W 074°05'0 0.0
2015-Jun-29 20:33N 40°41' W 074°05'0 0.0
2015-Jun-29 19:33N 40°41' W 074°05'0 0.0
2015-Jun-29 18:33N 40°41' W 074°05'0 0.0
2015-Jun-29 17:33N 40°41' W 074°05'0 0.0
2015-Jun-29 16:33N 40°41' W 074°05'0 0.0
2015-Jun-29 15:33N 40°41' W 074°05'0 0.0
2015-Jun-29 14:33N 40°41' W 074°05'0 0.0
2015-Jun-29 13:33N 40°41' W 074°05'0 0.0
2015-Jun-29 12:33N 40°41' W 074°05'0 0.0
2015-Jun-29 11:33N 40°41' W 074°05'0 0.0
2015-Jun-29 10:33N 40°41' W 074°05'0 0.0
2015-Jun-29 09:33N 40°41' W 074°05'0 0.0
2015-Jun-29 08:33N 40°41' W 074°05'0 0.0
2015-Jun-29 07:33N 40°41' W 074°05'0 0.0
2015-Jun-29 06:33N 40°41' W 074°05'0 0.0
2015-Jun-29 05:33N 40°41' W 074°05'0 0.0
2015-Jun-29 04:33N 40°41' W 074°05'0 0.0
2015-Jun-29 03:33N 40°41' W 074°05'0 0.0
2015-Jun-29 02:33N 40°41' W 074°05'0 0.0
2015-Jun-29 01:33N 40°41' W 074°05'0 0.0
2015-Jun-29 00:33N 40°41' W 074°05'0 0.0
2015-Jun-28 23:33N 40°41' W 074°05'0 0.0
2015-Jun-28 22:33N 40°41' W 074°05'0 0.0
2015-Jun-28 21:33N 40°41' W 074°05'0 0.0
2015-Jun-28 20:33N 40°41' W 074°05'0 0.0
2015-Jun-28 19:33N 40°41' W 074°05'0 0.0
2015-Jun-28 18:33N 40°41' W 074°05'0 0.0
2015-Jun-28 17:33N 40°41' W 074°05'0 0.0
2015-Jun-28 16:33N 40°41' W 074°05'0 0.0
2015-Jun-28 15:33N 40°41' W 074°05'0 0.0
2015-Jun-28 14:33N 40°41' W 074°05'0 0.0
2015-Jun-28 13:33N 40°41' W 074°05'0 0.0
2015-Jun-28 12:33N 40°41' W 074°05'0 0.0
2015-Jun-28 11:33N 40°41' W 074°05'0 0.0
2015-Jun-28 10:33N 40°41' W 074°05'0 0.0
2015-Jun-28 09:33N 40°41' W 074°05'0 0.0
2015-Jun-28 08:33N 40°41' W 074°05'0 0.0
2015-Jun-28 07:33N 40°41' W 074°05'0 0.0
2015-Jun-28 06:33N 40°41' W 074°05'0 0.0
2015-Jun-28 05:33N 40°41' W 074°05'0 0.0
2015-Jun-28 04:33N 40°41' W 074°05'0 0.0
2015-Jun-28 03:33N 40°41' W 074°05'0 0.0
2015-Jun-28 02:33N 40°41' W 074°05'0 0.0
2015-Jun-28 01:33N 40°41' W 074°05'0 0.0
2015-Jun-28 00:33N 40°41' W 074°05'0 0.0
2015-Jun-27 23:33N 40°41' W 074°05'0 0.0
2015-Jun-27 22:33N 40°41' W 074°05'0 0.0
2015-Jun-27 21:33N 40°41' W 074°05'0 0.0
2015-Jun-27 20:33N 40°41' W 074°05'0 0.0
2015-Jun-27 19:33N 40°41' W 074°05'3 3.3
2015-Jun-27 18:33N 40°39' W 074°08'3 2.9
2015-Jun-27 17:33N 40°38' W 074°12'1 0.6
2015-Jun-27 16:33N 40°39' W 074°11'5 5.4
2015-Jun-27 15:33N 40°41' W 074°05'0 0.0
2015-Jun-27 14:33N 40°41' W 074°05'0 0.0
2015-Jun-27 13:33N 40°41' W 074°05'0 0.0
2015-Jun-27 12:33N 40°41' W 074°05'0 0.0
2015-Jun-27 11:33N 40°41' W 074°05'0 0.0
2015-Jun-27 10:33N 40°41' W 074°05'0 0.0
2015-Jun-27 09:33N 40°41' W 074°05'0 0.4
2015-Jun-27 08:33N 40°40' W 074°04'13 9.7
2015-Jun-27 07:13N 40°27' W 074°03'0 0.0
2015-Jun-27 06:28N 40°27' W 074°03'3 3.8
2015-Jun-27 05:33N 40°30' W 073°60'8 7.8
2015-Jun-27 04:31N 40°25' W 073°51'1 1.0
2015-Jun-27 03:25N 40°26' W 073°51'6 6.2
2015-Jun-27 02:26N 40°29' W 073°58'4 4.6
2015-Jun-27 01:33N 40°27' W 074°03'3 2.9
2015-Jun-27 00:20N 40°29' W 073°59'6 6.7
2015-Jun-26 23:31N 40°26' W 073°54'  
Track history (hours):
 
Tides and Currents Weather Stations Pressure Air Temp Water Temp Dewpoint Dewpoint Depression Visibility Wind Speed Wind Dir Waves Ship Positions

Shelby

Owner: WEEKS MARINE, INC., CRANFORD, NJ. More information available from US FCC via Universal Licensing System and Coast Guard Vessel Documentation Center.

Last reported at 2015-Jul-06 21:33 UTC. Time now 2015-Jul-06 22:13 UTC.
Position N 40°30' W 074°08'.

Length 22 m; draft 3.1 m.

Type: Tug. MMSI: 366902344.

Date/timePositionNaut miles runAvg speedWind from/ knotsBaromVisibWave heightAir tempDewpointWater temp
2015-Jul-06 21:33N 40°30' W 074°08'6 6.3
2015-Jul-06 20:33N 40°32' W 074°00'6 6.0
2015-Jul-06 19:33N 40°33' W 073°53'0 0.1
2015-Jul-06 18:30N 40°33' W 073°53'1 1.3
2015-Jul-06 17:33N 40°34' W 073°54'0 0.0
2015-Jul-06 16:33N 40°34' W 073°54'0 0.0
2015-Jul-06 15:33N 40°34' W 073°54'0 0.0
2015-Jul-06 14:33N 40°34' W 073°54'4 3.4
2015-Jul-06 13:28N 40°34' W 073°59'3 0.5
2015-Jul-06 06:33N 40°32' W 074°02'6 5.6
2015-Jul-06 05:33N 40°32' W 073°55'3 2.4
2015-Jul-06 04:25N 40°33' W 073°52'3 2.9
2015-Jul-06 03:15N 40°33' W 073°57'2 3.0
2015-Jul-06 02:33N 40°34' W 073°54'0 0.0
2015-Jul-06 01:33N 40°34' W 073°54'3 2.9
2015-Jul-06 00:31N 40°34' W 073°58'5 4.8
2015-Jul-05 23:26N 40°32' W 074°04'1 0.1
2015-Jul-05 18:15N 40°31' W 074°04'4 6.0
2015-Jul-05 17:32N 40°32' W 073°59'2 2.1
2015-Jul-05 16:32N 40°34' W 073°59'3 1.0
2015-Jul-05 13:28N 40°32' W 074°03'7 7.4
2015-Jul-05 12:33N 40°32' W 073°54'0 0.4
2015-Jul-05 11:31N 40°32' W 073°54'2 2.4
2015-Jul-05 10:33N 40°34' W 073°56'2 1.6
2015-Jul-05 09:33N 40°34' W 073°54'0 0.2
2015-Jul-05 08:33N 40°34' W 073°54'5 4.8
2015-Jul-05 07:30N 40°34' W 074°01'4 1.2
2015-Jul-05 04:19N 40°31' W 074°04'6 6.4
2015-Jul-05 03:25N 40°32' W 073°57'1 0.5
2015-Jul-05 01:12N 40°32' W 073°58'2 3.8
2015-Jul-05 00:33N 40°32' W 074°01'2 0.3
2015-Jul-04 17:33N 40°34' W 074°01'5 4.8
2015-Jul-04 16:33N 40°34' W 073°54'2 2.1
2015-Jul-04 15:33N 40°32' W 073°53'0 0.1
2015-Jul-04 14:20N 40°32' W 073°53'3 3.3
2015-Jul-04 13:25N 40°33' W 073°57'2 2.6
2015-Jul-04 12:33N 40°34' W 073°54'2 1.7
2015-Jul-04 11:32N 40°32' W 073°53'2 2.0
2015-Jul-04 10:33N 40°31' W 073°55'3 2.8
2015-Jul-04 09:33N 40°34' W 073°54'1 1.4
2015-Jul-04 08:33N 40°34' W 073°56'3 2.6
2015-Jul-04 07:33N 40°33' W 073°53'3 2.6
2015-Jul-04 06:33N 40°32' W 073°55'3 2.7
2015-Jul-04 05:33N 40°34' W 073°54'0 0.0
2015-Jul-04 04:33N 40°34' W 073°54'1 1.3
2015-Jul-04 03:33N 40°34' W 073°56'5 5.0
2015-Jul-04 02:33N 40°33' W 074°02'6 5.7
2015-Jul-04 01:33N 40°30' W 074°08'2 0.2
2015-Jul-03 18:30N 40°30' W 074°10'6 5.8
2015-Jul-03 17:27N 40°32' W 074°03'6 6.3
2015-Jul-03 16:33N 40°31' W 073°56'1 1.2
2015-Jul-03 15:24N 40°32' W 073°54'5 5.9
2015-Jul-03 14:33N 40°32' W 074°01'13 4.2
2015-Jul-03 11:32N 40°30' W 074°17'1 0.2
2015-Jul-03 08:21N 40°30' W 074°16'3 3.3
2015-Jul-03 07:26N 40°30' W 074°20'6 3.2
2015-Jul-03 05:32N 40°30' W 074°12'6 5.4
2015-Jul-03 04:28N 40°31' W 074°04'5 5.6
2015-Jul-03 03:33N 40°34' W 073°59'3 3.5
2015-Jul-03 02:33N 40°34' W 073°54'0 0.1
2015-Jul-03 01:33N 40°34' W 073°54'2 2.1
2015-Jul-03 00:34N 40°33' W 073°52'2 1.9
2015-Jul-02 23:33N 40°32' W 073°54'2 2.0
2015-Jul-02 22:33N 40°34' W 073°56'2 1.6
2015-Jul-02 21:33N 40°34' W 073°54'0 0.0
2015-Jul-02 20:33N 40°34' W 073°54'3 2.6
2015-Jul-02 19:33N 40°32' W 073°57'3 2.2
2015-Jul-02 18:23N 40°32' W 073°53'3 3.0
2015-Jul-02 17:33N 40°34' W 073°56'2 0.8
2015-Jul-02 15:33N 40°34' W 073°54'2 1.4
2015-Jul-02 14:21N 40°32' W 073°53'0 0.2
2015-Jul-02 13:25N 40°33' W 073°53'3 3.1
2015-Jul-02 12:33N 40°33' W 073°57'2 2.3
2015-Jul-02 11:32N 40°34' W 073°54'0 0.0
2015-Jul-02 10:33N 40°34' W 073°54'0 0.0
2015-Jul-02 09:33N 40°34' W 073°54'0 0.4
2015-Jul-02 08:33N 40°34' W 073°55'17 8.0
2015-Jul-02 06:30N 40°30' W 074°15'12 6.1
2015-Jul-02 04:33N 40°34' W 074°01'5 1.7
2015-Jul-02 01:27N 40°34' W 073°54'2 2.7
2015-Jul-02 00:32N 40°33' W 073°57'3 3.0
2015-Jul-01 23:32N 40°33' W 073°53'5 4.1
2015-Jul-01 22:11N 40°32' W 073°60'12 3.4
2015-Jul-01 18:32N 40°30' W 074°16'5 3.4
2015-Jul-01 17:12N 40°30' W 074°10'4 6.6
2015-Jul-01 16:32N 40°31' W 074°04'6 5.8
2015-Jul-01 15:34N 40°32' W 073°57'4 3.7
2015-Jul-01 14:33N 40°33' W 073°52'3 3.5
2015-Jul-01 13:33N 40°32' W 073°57'3 2.6
2015-Jul-01 12:33N 40°34' W 073°54'0 0.0
2015-Jul-01 08:27N 40°34' W 073°54'3 2.8
2015-Jul-01 07:32N 40°32' W 073°56'2 2.5
2015-Jul-01 06:33N 40°33' W 073°53'2 2.5
2015-Jul-01 05:33N 40°34' W 073°56'2 1.5
2015-Jul-01 04:30N 40°34' W 073°54'0 0.0
2015-Jul-01 03:20N 40°34' W 073°54'0 0.0
2015-Jul-01 02:29N 40°34' W 073°54'7 7.7
2015-Jul-01 01:34N 40°37' W 074°03'4 3.7
2015-Jul-01 00:33N 40°39' W 074°07'0 0.0
2015-Jun-30 23:33N 40°39' W 074°07'0 0.0
2015-Jun-30 22:33N 40°39' W 074°07'2 2.3
2015-Jun-30 21:33N 40°41' W 074°05'0 0.0
2015-Jun-30 20:33N 40°41' W 074°05'0 0.0
2015-Jun-30 19:33N 40°41' W 074°05'410.7
2015-Jun-30 19:12N 40°44' W 074°01'4 5.8
2015-Jun-30 18:33N 40°41' W 074°05'0 0.0
2015-Jun-30 17:33N 40°41' W 074°05'0 0.0
2015-Jun-30 16:33N 40°41' W 074°05'0 0.0
2015-Jun-30 15:33N 40°41' W 074°05'0 0.0
2015-Jun-30 14:33N 40°41' W 074°05'0 0.0
2015-Jun-30 13:33N 40°41' W 074°05'0 0.0
2015-Jun-30 12:33N 40°41' W 074°05'0 0.0
2015-Jun-30 11:33N 40°41' W 074°05'0 0.0
2015-Jun-30 10:33N 40°41' W 074°05'0 0.0
2015-Jun-30 09:33N 40°41' W 074°05'0 0.0
2015-Jun-30 08:33N 40°41' W 074°05'0 0.0
2015-Jun-30 07:33N 40°41' W 074°05'0 0.0
2015-Jun-30 06:33N 40°41' W 074°05'0 0.0
2015-Jun-30 05:33N 40°41' W 074°05'0 0.0
2015-Jun-30 04:33N 40°41' W 074°05'0 0.0
2015-Jun-30 03:33N 40°41' W 074°05'0 0.0
2015-Jun-30 02:33N 40°41' W 074°05'0 0.0
2015-Jun-30 01:33N 40°41' W 074°05'0 0.0
2015-Jun-30 00:33N 40°41' W 074°05'0 0.0
2015-Jun-29 23:33N 40°41' W 074°05'0 0.0
2015-Jun-29 22:33N 40°41' W 074°05'0 0.0
2015-Jun-29 21:33N 40°41' W 074°05'0 0.0
2015-Jun-29 20:33N 40°41' W 074°05'0 0.0
2015-Jun-29 19:33N 40°41' W 074°05'0 0.0
2015-Jun-29 18:33N 40°41' W 074°05'0 0.0
2015-Jun-29 17:33N 40°41' W 074°05'0 0.0
2015-Jun-29 16:33N 40°41' W 074°05'0 0.0
2015-Jun-29 15:33N 40°41' W 074°05'0 0.0
2015-Jun-29 14:33N 40°41' W 074°05'0 0.0
2015-Jun-29 13:33N 40°41' W 074°05'0 0.0
2015-Jun-29 12:33N 40°41' W 074°05'0 0.0
2015-Jun-29 11:33N 40°41' W 074°05'0 0.0
2015-Jun-29 10:33N 40°41' W 074°05'0 0.0
2015-Jun-29 09:33N 40°41' W 074°05'0 0.0
2015-Jun-29 08:33N 40°41' W 074°05'0 0.0
2015-Jun-29 07:33N 40°41' W 074°05'0 0.0
2015-Jun-29 06:33N 40°41' W 074°05'0 0.0
2015-Jun-29 05:33N 40°41' W 074°05'0 0.0
2015-Jun-29 04:33N 40°41' W 074°05'0 0.0
2015-Jun-29 03:33N 40°41' W 074°05'0 0.0
2015-Jun-29 02:33N 40°41' W 074°05'0 0.0
2015-Jun-29 01:33N 40°41' W 074°05'0 0.0
2015-Jun-29 00:33N 40°41' W 074°05'0 0.0
2015-Jun-28 23:33N 40°41' W 074°05'0 0.0
2015-Jun-28 22:33N 40°41' W 074°05'0 0.0
2015-Jun-28 21:33N 40°41' W 074°05'0 0.0
2015-Jun-28 20:33N 40°41' W 074°05'0 0.0
2015-Jun-28 19:33N 40°41' W 074°05'0 0.0
2015-Jun-28 18:33N 40°41' W 074°05'0 0.0
2015-Jun-28 17:33N 40°41' W 074°05'0 0.0
2015-Jun-28 16:33N 40°41' W 074°05'0 0.0
2015-Jun-28 15:33N 40°41' W 074°05'0 0.0
2015-Jun-28 14:33N 40°41' W 074°05'0 0.0
2015-Jun-28 13:33N 40°41' W 074°05'0 0.0
2015-Jun-28 12:33N 40°41' W 074°05'0 0.0
2015-Jun-28 11:33N 40°41' W 074°05'0 0.0
2015-Jun-28 10:33N 40°41' W 074°05'0 0.0
2015-Jun-28 09:33N 40°41' W 074°05'0 0.0
2015-Jun-28 08:33N 40°41' W 074°05'0 0.0
2015-Jun-28 07:33N 40°41' W 074°05'0 0.0
2015-Jun-28 06:33N 40°41' W 074°05'0 0.0
2015-Jun-28 05:33N 40°41' W 074°05'0 0.0
2015-Jun-28 04:33N 40°41' W 074°05'0 0.0
2015-Jun-28 03:33N 40°41' W 074°05'0 0.0
2015-Jun-28 02:33N 40°41' W 074°05'0 0.0
2015-Jun-28 01:33N 40°41' W 074°05'0 0.0
2015-Jun-28 00:33N 40°41' W 074°05'0 0.0
2015-Jun-27 23:33N 40°41' W 074°05'0 0.0
2015-Jun-27 22:33N 40°41' W 074°05'0 0.0
2015-Jun-27 21:33N 40°41' W 074°05'0 0.0
2015-Jun-27 20:33N 40°41' W 074°05'0 0.0
2015-Jun-27 19:33N 40°41' W 074°05'3 3.3
2015-Jun-27 18:33N 40°39' W 074°08'3 2.9
2015-Jun-27 17:33N 40°38' W 074°12'1 0.6
2015-Jun-27 16:33N 40°39' W 074°11'5 5.4
2015-Jun-27 15:33N 40°41' W 074°05'0 0.0
2015-Jun-27 14:33N 40°41' W 074°05'0 0.0
2015-Jun-27 13:33N 40°41' W 074°05'0 0.0
2015-Jun-27 12:33N 40°41' W 074°05'0 0.0
2015-Jun-27 11:33N 40°41' W 074°05'0 0.0
2015-Jun-27 10:33N 40°41' W 074°05'0 0.0
2015-Jun-27 09:33N 40°41' W 074°05'0 0.4
2015-Jun-27 08:33N 40°40' W 074°04'13 9.7
2015-Jun-27 07:13N 40°27' W 074°03'0 0.0
2015-Jun-27 06:28N 40°27' W 074°03'3 3.8
2015-Jun-27 05:33N 40°30' W 073°60'8 7.8
2015-Jun-27 04:31N 40°25' W 073°51'1 1.0
2015-Jun-27 03:25N 40°26' W 073°51'6 6.2
2015-Jun-27 02:26N 40°29' W 073°58'4 4.6
2015-Jun-27 01:33N 40°27' W 074°03'3 2.9
2015-Jun-27 00:20N 40°29' W 073°59'6 6.7
2015-Jun-26 23:31N 40°26' W 073°54'  

Dump ship's entire track history